sensor_id;sensor_type;location;lat;lon;timestamp;P1;durP1;ratioP1;P2;durP2;ratioP2
3733;SDS011;1882;52.256;8.874;2023-02-26T00:01:31;6.73;;;3.60;;
3733;SDS011;1882;52.256;8.874;2023-02-26T00:04:00;8.10;;;3.60;;
3733;SDS011;1882;52.256;8.874;2023-02-26T00:06:28;5.83;;;3.30;;
3733;SDS011;1882;52.256;8.874;2023-02-26T00:08:56;7.13;;;3.63;;
3733;SDS011;1882;52.256;8.874;2023-02-26T00:11:23;12.23;;;4.03;;
3733;SDS011;1882;52.256;8.874;2023-02-26T00:13:50;8.13;;;3.40;;
3733;SDS011;1882;52.256;8.874;2023-02-26T00:16:22;4.57;;;3.07;;
3733;SDS011;1882;52.256;8.874;2023-02-26T00:18:55;5.30;;;2.90;;
3733;SDS011;1882;52.256;8.874;2023-02-26T00:21:23;12.43;;;4.33;;
3733;SDS011;1882;52.256;8.874;2023-02-26T00:23:50;4.50;;;3.20;;
3733;SDS011;1882;52.256;8.874;2023-02-26T00:26:24;4.70;;;3.30;;
3733;SDS011;1882;52.256;8.874;2023-02-26T00:28:52;5.07;;;3.17;;
3733;SDS011;1882;52.256;8.874;2023-02-26T00:31:19;6.47;;;3.43;;
3733;SDS011;1882;52.256;8.874;2023-02-26T00:33:55;5.03;;;2.93;;
3733;SDS011;1882;52.256;8.874;2023-02-26T00:41:46;7.30;;;2.73;;
3733;SDS011;1882;52.256;8.874;2023-02-26T00:44:13;5.57;;;3.23;;
3733;SDS011;1882;52.256;8.874;2023-02-26T00:51:47;5.30;;;3.03;;
3733;SDS011;1882;52.256;8.874;2023-02-26T00:54:22;8.87;;;3.23;;
3733;SDS011;1882;52.256;8.874;2023-02-26T00:56:50;5.53;;;3.40;;
3733;SDS011;1882;52.256;8.874;2023-02-26T00:59:30;2.80;;;2.50;;
3733;SDS011;1882;52.256;8.874;2023-02-26T01:02:00;6.43;;;3.10;;
3733;SDS011;1882;52.256;8.874;2023-02-26T01:04:26;4.83;;;2.70;;
3733;SDS011;1882;52.256;8.874;2023-02-26T01:06:55;6.40;;;3.20;;
3733;SDS011;1882;52.256;8.874;2023-02-26T01:09:32;5.43;;;2.97;;
3733;SDS011;1882;52.256;8.874;2023-02-26T01:12:03;4.53;;;2.73;;
3733;SDS011;1882;52.256;8.874;2023-02-26T01:14:32;5.87;;;3.00;;
3733;SDS011;1882;52.256;8.874;2023-02-26T01:19:52;5.93;;;2.60;;
3733;SDS011;1882;52.256;8.874;2023-02-26T01:22:39;4.43;;;2.53;;
3733;SDS011;1882;52.256;8.874;2023-02-26T01:25:15;3.57;;;2.60;;
3733;SDS011;1882;52.256;8.874;2023-02-26T01:27:58;5.23;;;2.33;;
3733;SDS011;1882;52.256;8.874;2023-02-26T01:30:25;3.20;;;2.30;;
3733;SDS011;1882;52.256;8.874;2023-02-26T01:40:53;3.13;;;2.23;;
3733;SDS011;1882;52.256;8.874;2023-02-26T01:46:13;6.10;;;2.30;;
3733;SDS011;1882;52.256;8.874;2023-02-26T01:48:54;3.67;;;2.10;;
3733;SDS011;1882;52.256;8.874;2023-02-26T01:54:08;3.20;;;2.20;;
3733;SDS011;1882;52.256;8.874;2023-02-26T01:56:38;5.03;;;2.60;;
3733;SDS011;1882;52.256;8.874;2023-02-26T01:59:07;4.90;;;2.23;;
3733;SDS011;1882;52.256;8.874;2023-02-26T02:01:41;2.80;;;2.10;;
3733;SDS011;1882;52.256;8.874;2023-02-26T02:04:12;2.40;;;2.10;;
3733;SDS011;1882;52.256;8.874;2023-02-26T02:06:41;2.30;;;1.97;;
3733;SDS011;1882;52.256;8.874;2023-02-26T02:09:08;3.97;;;2.03;;
3733;SDS011;1882;52.256;8.874;2023-02-26T02:11:51;3.33;;;2.00;;
3733;SDS011;1882;52.256;8.874;2023-02-26T02:14:55;2.60;;;1.90;;
3733;SDS011;1882;52.256;8.874;2023-02-26T02:31:59;2.50;;;1.70;;
3733;SDS011;1882;52.256;8.874;2023-02-26T02:34:45;3.60;;;2.00;;
3733;SDS011;1882;52.256;8.874;2023-02-26T02:37:15;3.80;;;1.90;;
3733;SDS011;1882;52.256;8.874;2023-02-26T02:39:48;6.90;;;2.03;;
3733;SDS011;1882;52.256;8.874;2023-02-26T02:42:27;3.47;;;1.93;;
3733;SDS011;1882;52.256;8.874;2023-02-26T02:45:33;3.33;;;1.73;;
3733;SDS011;1882;52.256;8.874;2023-02-26T02:47:58;2.30;;;2.00;;
3733;SDS011;1882;52.256;8.874;2023-02-26T02:50:36;4.93;;;1.83;;
3733;SDS011;1882;52.256;8.874;2023-02-26T02:55:47;3.70;;;1.77;;
3733;SDS011;1882;52.256;8.874;2023-02-26T02:58:27;10.40;;;2.13;;
3733;SDS011;1882;52.256;8.874;2023-02-26T03:00:57;1.97;;;1.77;;
3733;SDS011;1882;52.256;8.874;2023-02-26T03:03:32;3.57;;;2.10;;
3733;SDS011;1882;52.256;8.874;2023-02-26T03:06:04;3.20;;;1.93;;
3733;SDS011;1882;52.256;8.874;2023-02-26T03:08:38;3.33;;;1.70;;
3733;SDS011;1882;52.256;8.874;2023-02-26T03:11:07;3.97;;;1.90;;
3733;SDS011;1882;52.256;8.874;2023-02-26T03:13:37;6.13;;;1.93;;
3733;SDS011;1882;52.256;8.874;2023-02-26T03:22:00;3.93;;;1.60;;
3733;SDS011;1882;52.256;8.874;2023-02-26T03:35:45;2.03;;;1.60;;
3733;SDS011;1882;52.256;8.874;2023-02-26T03:38:42;3.70;;;1.87;;
3733;SDS011;1882;52.256;8.874;2023-02-26T03:41:13;2.67;;;1.67;;
3733;SDS011;1882;52.256;8.874;2023-02-26T03:46:38;3.13;;;1.87;;
3733;SDS011;1882;52.256;8.874;2023-02-26T03:49:09;6.10;;;1.90;;
3733;SDS011;1882;52.256;8.874;2023-02-26T03:51:41;3.23;;;1.80;;
3733;SDS011;1882;52.256;8.874;2023-02-26T03:54:32;3.90;;;1.80;;
3733;SDS011;1882;52.256;8.874;2023-02-26T03:57:23;4.83;;;1.80;;
3733;SDS011;1882;52.256;8.874;2023-02-26T04:00:05;1.80;;;1.60;;
3733;SDS011;1882;52.256;8.874;2023-02-26T04:05:16;4.53;;;2.30;;
3733;SDS011;1882;52.256;8.874;2023-02-26T04:07:50;2.80;;;1.80;;
3733;SDS011;1882;52.256;8.874;2023-02-26T04:10:23;6.13;;;1.87;;
3733;SDS011;1882;52.256;8.874;2023-02-26T04:12:53;6.93;;;2.07;;
3733;SDS011;1882;52.256;8.874;2023-02-26T04:15:20;2.40;;;1.77;;
3733;SDS011;1882;52.256;8.874;2023-02-26T04:17:49;3.00;;;2.00;;
3733;SDS011;1882;52.256;8.874;2023-02-26T04:20:16;6.60;;;2.10;;
3733;SDS011;1882;52.256;8.874;2023-02-26T04:22:48;2.43;;;1.80;;
3733;SDS011;1882;52.256;8.874;2023-02-26T04:25:19;3.23;;;1.60;;
3733;SDS011;1882;52.256;8.874;2023-02-26T04:27:55;3.97;;;2.40;;
3733;SDS011;1882;52.256;8.874;2023-02-26T04:30:22;5.93;;;2.00;;
3733;SDS011;1882;52.256;8.874;2023-02-26T04:32:49;4.97;;;2.20;;
3733;SDS011;1882;52.256;8.874;2023-02-26T04:35:18;3.50;;;2.00;;
3733;SDS011;1882;52.256;8.874;2023-02-26T04:37:50;3.13;;;1.70;;
3733;SDS011;1882;52.256;8.874;2023-02-26T04:40:19;4.50;;;1.70;;
3733;SDS011;1882;52.256;8.874;2023-02-26T04:42:49;2.73;;;1.83;;
3733;SDS011;1882;52.256;8.874;2023-02-26T04:45:22;6.00;;;2.10;;
3733;SDS011;1882;52.256;8.874;2023-02-26T04:47:49;4.43;;;1.83;;
3733;SDS011;1882;52.256;8.874;2023-02-26T04:50:18;5.40;;;2.10;;
3733;SDS011;1882;52.256;8.874;2023-02-26T04:52:50;3.10;;;2.00;;
3733;SDS011;1882;52.256;8.874;2023-02-26T04:55:17;2.97;;;1.80;;
3733;SDS011;1882;52.256;8.874;2023-02-26T04:57:49;1.60;;;1.50;;
3733;SDS011;1882;52.256;8.874;2023-02-26T05:00:20;2.87;;;1.63;;
3733;SDS011;1882;52.256;8.874;2023-02-26T05:02:47;4.07;;;2.10;;
3733;SDS011;1882;52.256;8.874;2023-02-26T05:05:14;2.60;;;1.77;;
3733;SDS011;1882;52.256;8.874;2023-02-26T05:07:57;4.67;;;2.10;;
3733;SDS011;1882;52.256;8.874;2023-02-26T05:10:24;3.30;;;1.63;;
3733;SDS011;1882;52.256;8.874;2023-02-26T05:12:51;1.90;;;1.70;;
3733;SDS011;1882;52.256;8.874;2023-02-26T05:15:20;4.93;;;1.87;;
3733;SDS011;1882;52.256;8.874;2023-02-26T05:17:50;2.00;;;1.80;;
3733;SDS011;1882;52.256;8.874;2023-02-26T05:20:18;4.03;;;2.70;;
3733;SDS011;1882;52.256;8.874;2023-02-26T05:22:45;6.70;;;2.40;;
3733;SDS011;1882;52.256;8.874;2023-02-26T05:25:21;4.80;;;2.50;;
3733;SDS011;1882;52.256;8.874;2023-02-26T05:27:50;2.10;;;1.77;;
3733;SDS011;1882;52.256;8.874;2023-02-26T05:30:17;3.70;;;1.90;;
3733;SDS011;1882;52.256;8.874;2023-02-26T05:32:47;2.77;;;1.70;;
3733;SDS011;1882;52.256;8.874;2023-02-26T05:35:16;2.27;;;1.47;;
3733;SDS011;1882;52.256;8.874;2023-02-26T05:37:45;2.70;;;1.87;;
3733;SDS011;1882;52.256;8.874;2023-02-26T05:40:23;5.60;;;2.10;;
3733;SDS011;1882;52.256;8.874;2023-02-26T05:42:49;3.90;;;2.10;;
3733;SDS011;1882;52.256;8.874;2023-02-26T05:45:20;3.10;;;1.97;;
3733;SDS011;1882;52.256;8.874;2023-02-26T05:47:56;2.60;;;1.70;;
3733;SDS011;1882;52.256;8.874;2023-02-26T05:50:22;3.83;;;1.67;;
3733;SDS011;1882;52.256;8.874;2023-02-26T05:52:51;3.37;;;1.57;;
3733;SDS011;1882;52.256;8.874;2023-02-26T05:55:21;2.43;;;1.70;;
3733;SDS011;1882;52.256;8.874;2023-02-26T05:57:50;5.57;;;2.00;;
3733;SDS011;1882;52.256;8.874;2023-02-26T06:00:20;4.60;;;1.70;;
3733;SDS011;1882;52.256;8.874;2023-02-26T06:02:56;5.67;;;1.70;;
3733;SDS011;1882;52.256;8.874;2023-02-26T06:05:22;6.13;;;2.30;;
3733;SDS011;1882;52.256;8.874;2023-02-26T06:07:49;2.70;;;1.60;;
3733;SDS011;1882;52.256;8.874;2023-02-26T06:10:18;1.90;;;1.67;;
3733;SDS011;1882;52.256;8.874;2023-02-26T06:12:50;2.47;;;1.70;;
3733;SDS011;1882;52.256;8.874;2023-02-26T06:15:17;6.17;;;1.77;;
3733;SDS011;1882;52.256;8.874;2023-02-26T06:17:47;2.83;;;1.77;;
3733;SDS011;1882;52.256;8.874;2023-02-26T06:20:14;4.47;;;1.80;;
3733;SDS011;1882;52.256;8.874;2023-02-26T06:22:43;7.23;;;1.90;;
3733;SDS011;1882;52.256;8.874;2023-02-26T06:25:20;3.37;;;1.70;;
3733;SDS011;1882;52.256;8.874;2023-02-26T06:27:54;4.07;;;2.27;;
3733;SDS011;1882;52.256;8.874;2023-02-26T06:30:21;3.57;;;1.80;;
3733;SDS011;1882;52.256;8.874;2023-02-26T06:32:49;4.20;;;2.00;;
3733;SDS011;1882;52.256;8.874;2023-02-26T06:35:18;3.10;;;1.90;;
3733;SDS011;1882;52.256;8.874;2023-02-26T06:37:45;4.80;;;2.20;;
3733;SDS011;1882;52.256;8.874;2023-02-26T06:40:15;5.20;;;2.20;;
3733;SDS011;1882;52.256;8.874;2023-02-26T06:42:43;3.20;;;2.00;;
3733;SDS011;1882;52.256;8.874;2023-02-26T06:45:21;4.03;;;2.10;;
3733;SDS011;1882;52.256;8.874;2023-02-26T06:47:50;3.80;;;2.00;;
3733;SDS011;1882;52.256;8.874;2023-02-26T06:50:20;3.00;;;1.83;;
3733;SDS011;1882;52.256;8.874;2023-02-26T06:52:49;4.63;;;2.03;;
3733;SDS011;1882;52.256;8.874;2023-02-26T06:55:19;3.23;;;1.90;;
3733;SDS011;1882;52.256;8.874;2023-02-26T06:57:50;2.20;;;2.00;;
3733;SDS011;1882;52.256;8.874;2023-02-26T07:00:19;5.17;;;2.37;;
3733;SDS011;1882;52.256;8.874;2023-02-26T07:02:49;6.10;;;2.23;;
3733;SDS011;1882;52.256;8.874;2023-02-26T07:05:19;8.67;;;2.20;;
3733;SDS011;1882;52.256;8.874;2023-02-26T07:07:48;4.70;;;1.80;;
3733;SDS011;1882;52.256;8.874;2023-02-26T07:10:15;5.37;;;2.10;;
3733;SDS011;1882;52.256;8.874;2023-02-26T07:12:50;2.83;;;2.10;;
3733;SDS011;1882;52.256;8.874;2023-02-26T07:15:19;4.40;;;1.80;;
3733;SDS011;1882;52.256;8.874;2023-02-26T07:17:46;6.00;;;2.03;;
3733;SDS011;1882;52.256;8.874;2023-02-26T07:20:12;3.50;;;2.03;;
3733;SDS011;1882;52.256;8.874;2023-02-26T07:22:49;8.70;;;2.07;;
3733;SDS011;1882;52.256;8.874;2023-02-26T07:25:16;2.40;;;1.93;;
3733;SDS011;1882;52.256;8.874;2023-02-26T07:27:43;3.30;;;1.97;;
3733;SDS011;1882;52.256;8.874;2023-02-26T07:30:26;5.93;;;2.10;;
3733;SDS011;1882;52.256;8.874;2023-02-26T07:32:53;5.63;;;2.40;;
3733;SDS011;1882;52.256;8.874;2023-02-26T07:35:19;3.20;;;2.10;;
3733;SDS011;1882;52.256;8.874;2023-02-26T07:37:54;4.87;;;1.93;;
3733;SDS011;1882;52.256;8.874;2023-02-26T07:40:20;7.77;;;2.27;;
3733;SDS011;1882;52.256;8.874;2023-02-26T07:42:47;6.83;;;2.40;;
3733;SDS011;1882;52.256;8.874;2023-02-26T07:45:35;3.40;;;2.40;;
3733;SDS011;1882;52.256;8.874;2023-02-26T07:48:01;7.00;;;1.90;;
3733;SDS011;1882;52.256;8.874;2023-02-26T07:50:35;4.97;;;2.07;;
3733;SDS011;1882;52.256;8.874;2023-02-26T07:53:02;3.10;;;2.00;;
3733;SDS011;1882;52.256;8.874;2023-02-26T07:55:28;1.80;;;1.70;;
3733;SDS011;1882;52.256;8.874;2023-02-26T07:57:55;3.93;;;1.97;;
3733;SDS011;1882;52.256;8.874;2023-02-26T08:00:26;6.30;;;2.00;;
3733;SDS011;1882;52.256;8.874;2023-02-26T08:02:52;4.50;;;2.10;;
3733;SDS011;1882;52.256;8.874;2023-02-26T08:05:19;3.17;;;1.90;;
3733;SDS011;1882;52.256;8.874;2023-02-26T08:07:48;3.33;;;2.07;;
3733;SDS011;1882;52.256;8.874;2023-02-26T08:10:23;2.83;;;1.90;;
3733;SDS011;1882;52.256;8.874;2023-02-26T08:12:49;5.17;;;1.90;;
3733;SDS011;1882;52.256;8.874;2023-02-26T08:15:16;3.37;;;2.07;;
3733;SDS011;1882;52.256;8.874;2023-02-26T08:17:43;3.50;;;1.87;;
3733;SDS011;1882;52.256;8.874;2023-02-26T08:20:21;10.17;;;3.90;;
3733;SDS011;1882;52.256;8.874;2023-02-26T08:22:49;7.97;;;3.40;;
3733;SDS011;1882;52.256;8.874;2023-02-26T08:25:16;8.17;;;3.10;;
3733;SDS011;1882;52.256;8.874;2023-02-26T08:27:52;4.67;;;2.40;;
3733;SDS011;1882;52.256;8.874;2023-02-26T08:30:19;7.30;;;2.20;;
3733;SDS011;1882;52.256;8.874;2023-02-26T08:32:46;1.50;;;1.40;;
3733;SDS011;1882;52.256;8.874;2023-02-26T08:35:18;2.10;;;1.47;;
3733;SDS011;1882;52.256;8.874;2023-02-26T08:37:47;6.20;;;1.50;;
3733;SDS011;1882;52.256;8.874;2023-02-26T08:40:14;2.67;;;1.73;;
3733;SDS011;1882;52.256;8.874;2023-02-26T08:42:49;3.77;;;1.80;;
3733;SDS011;1882;52.256;8.874;2023-02-26T08:45:16;2.83;;;1.70;;
3733;SDS011;1882;52.256;8.874;2023-02-26T08:47:53;8.70;;;1.60;;
3733;SDS011;1882;52.256;8.874;2023-02-26T08:50:23;1.77;;;1.67;;
3733;SDS011;1882;52.256;8.874;2023-02-26T08:52:50;2.67;;;1.53;;
3733;SDS011;1882;52.256;8.874;2023-02-26T08:55:20;7.13;;;1.60;;
3733;SDS011;1882;52.256;8.874;2023-02-26T08:57:49;1.27;;;1.10;;
3733;SDS011;1882;52.256;8.874;2023-02-26T09:00:16;2.03;;;1.20;;
3733;SDS011;1882;52.256;8.874;2023-02-26T09:02:48;5.27;;;1.50;;
3733;SDS011;1882;52.256;8.874;2023-02-26T09:05:24;3.37;;;1.53;;
3733;SDS011;1882;52.256;8.874;2023-02-26T09:07:51;1.47;;;1.30;;
3733;SDS011;1882;52.256;8.874;2023-02-26T09:10:17;3.10;;;1.63;;
3733;SDS011;1882;52.256;8.874;2023-02-26T09:12:49;2.90;;;1.80;;
3733;SDS011;1882;52.256;8.874;2023-02-26T09:15:17;4.30;;;1.23;;
3733;SDS011;1882;52.256;8.874;2023-02-26T09:17:50;3.60;;;1.33;;
3733;SDS011;1882;52.256;8.874;2023-02-26T09:20:17;1.57;;;1.47;;
3733;SDS011;1882;52.256;8.874;2023-02-26T09:22:55;3.17;;;1.60;;
3733;SDS011;1882;52.256;8.874;2023-02-26T09:25:21;2.97;;;1.70;;
3733;SDS011;1882;52.256;8.874;2023-02-26T09:27:49;6.00;;;1.60;;
3733;SDS011;1882;52.256;8.874;2023-02-26T09:30:25;3.53;;;1.20;;
3733;SDS011;1882;52.256;8.874;2023-02-26T09:32:52;1.57;;;1.23;;
3733;SDS011;1882;52.256;8.874;2023-02-26T09:35:19;3.03;;;1.40;;
3733;SDS011;1882;52.256;8.874;2023-02-26T09:37:45;2.30;;;1.30;;
3733;SDS011;1882;52.256;8.874;2023-02-26T09:46:25;1.33;;;1.20;;
3733;SDS011;1882;52.256;8.874;2023-02-26T09:49:03;1.83;;;1.50;;
3733;SDS011;1882;52.256;8.874;2023-02-26T09:52:10;3.73;;;1.60;;
3733;SDS011;1882;52.256;8.874;2023-02-26T09:54:48;1.73;;;1.40;;
3733;SDS011;1882;52.256;8.874;2023-02-26T09:59:57;5.33;;;1.27;;
3733;SDS011;1882;52.256;8.874;2023-02-26T10:02:39;2.30;;;1.00;;
3733;SDS011;1882;52.256;8.874;2023-02-26T10:08:16;2.87;;;1.30;;
3733;SDS011;1882;52.256;8.874;2023-02-26T10:15:56;2.10;;;1.30;;
3733;SDS011;1882;52.256;8.874;2023-02-26T10:18:33;5.80;;;1.27;;
3733;SDS011;1882;52.256;8.874;2023-02-26T10:21:21;2.53;;;1.17;;
3733;SDS011;1882;52.256;8.874;2023-02-26T10:24:45;2.30;;;1.30;;
3733;SDS011;1882;52.256;8.874;2023-02-26T10:27:15;1.40;;;1.00;;
3733;SDS011;1882;52.256;8.874;2023-02-26T10:30:28;1.30;;;1.00;;
3733;SDS011;1882;52.256;8.874;2023-02-26T10:39:50;2.00;;;1.20;;
3733;SDS011;1882;52.256;8.874;2023-02-26T10:45:38;1.70;;;1.33;;
3733;SDS011;1882;52.256;8.874;2023-02-26T10:51:32;3.63;;;1.50;;
3733;SDS011;1882;52.256;8.874;2023-02-26T11:06:36;3.77;;;1.17;;
3733;SDS011;1882;52.256;8.874;2023-02-26T11:09:42;4.73;;;1.57;;
3733;SDS011;1882;52.256;8.874;2023-02-26T11:12:15;1.53;;;1.10;;
3733;SDS011;1882;52.256;8.874;2023-02-26T11:14:44;1.53;;;1.20;;
3733;SDS011;1882;52.256;8.874;2023-02-26T11:17:23;2.30;;;1.20;;
3733;SDS011;1882;52.256;8.874;2023-02-26T11:20:39;2.97;;;1.47;;
3733;SDS011;1882;52.256;8.874;2023-02-26T11:23:17;1.70;;;1.20;;
3733;SDS011;1882;52.256;8.874;2023-02-26T11:25:51;2.30;;;1.10;;
3733;SDS011;1882;52.256;8.874;2023-02-26T11:28:37;6.67;;;1.40;;
3733;SDS011;1882;52.256;8.874;2023-02-26T11:31:17;3.33;;;1.30;;
3733;SDS011;1882;52.256;8.874;2023-02-26T11:34:01;1.63;;;1.23;;
3733;SDS011;1882;52.256;8.874;2023-02-26T11:39:33;2.40;;;1.30;;
3733;SDS011;1882;52.256;8.874;2023-02-26T11:42:10;1.77;;;1.20;;
3733;SDS011;1882;52.256;8.874;2023-02-26T11:48:01;6.00;;;1.30;;
3733;SDS011;1882;52.256;8.874;2023-02-26T11:50:30;1.33;;;1.23;;
3733;SDS011;1882;52.256;8.874;2023-02-26T11:53:16;1.83;;;1.10;;
3733;SDS011;1882;52.256;8.874;2023-02-26T11:55:45;2.37;;;1.20;;
3733;SDS011;1882;52.256;8.874;2023-02-26T11:58:45;2.63;;;0.90;;
3733;SDS011;1882;52.256;8.874;2023-02-26T12:01:15;2.43;;;1.30;;
3733;SDS011;1882;52.256;8.874;2023-02-26T12:03:50;1.20;;;1.10;;
3733;SDS011;1882;52.256;8.874;2023-02-26T12:06:19;4.17;;;1.97;;
3733;SDS011;1882;52.256;8.874;2023-02-26T12:08:53;2.13;;;1.40;;
3733;SDS011;1882;52.256;8.874;2023-02-26T12:19:56;1.23;;;1.13;;
3733;SDS011;1882;52.256;8.874;2023-02-26T12:26:24;4.27;;;1.40;;
3733;SDS011;1882;52.256;8.874;2023-02-26T12:34:25;4.07;;;1.70;;
3733;SDS011;1882;52.256;8.874;2023-02-26T12:43:32;4.03;;;1.53;;
3733;SDS011;1882;52.256;8.874;2023-02-26T13:18:11;2.10;;;1.50;;
3733;SDS011;1882;52.256;8.874;2023-02-26T13:20:54;2.17;;;1.40;;
3733;SDS011;1882;52.256;8.874;2023-02-26T13:23:51;1.83;;;1.40;;
3733;SDS011;1882;52.256;8.874;2023-02-26T13:26:33;4.87;;;1.20;;
3733;SDS011;1882;52.256;8.874;2023-02-26T13:29:02;1.80;;;1.30;;
3733;SDS011;1882;52.256;8.874;2023-02-26T13:31:42;6.10;;;1.60;;
3733;SDS011;1882;52.256;8.874;2023-02-26T13:34:25;2.50;;;1.60;;
3733;SDS011;1882;52.256;8.874;2023-02-26T13:43:18;1.70;;;1.40;;
3733;SDS011;1882;52.256;8.874;2023-02-26T13:49:24;1.57;;;1.20;;
3733;SDS011;1882;52.256;8.874;2023-02-26T13:52:13;2.10;;;1.43;;
3733;SDS011;1882;52.256;8.874;2023-02-26T13:54:50;3.43;;;1.50;;
3733;SDS011;1882;52.256;8.874;2023-02-26T14:09:55;1.40;;;1.30;;
3733;SDS011;1882;52.256;8.874;2023-02-26T14:12:03;2.40;;;1.33;;
3733;SDS011;1882;52.256;8.874;2023-02-26T14:18:04;2.27;;;1.20;;
3733;SDS011;1882;52.256;8.874;2023-02-26T14:20:37;1.40;;;1.30;;
3733;SDS011;1882;52.256;8.874;2023-02-26T14:23:41;1.97;;;1.30;;
3733;SDS011;1882;52.256;8.874;2023-02-26T14:26:15;1.70;;;1.20;;
3733;SDS011;1882;52.256;8.874;2023-02-26T14:28:45;2.10;;;1.20;;
3733;SDS011;1882;52.256;8.874;2023-02-26T14:31:27;1.27;;;1.10;;
3733;SDS011;1882;52.256;8.874;2023-02-26T14:34:46;1.20;;;1.10;;
3733;SDS011;1882;52.256;8.874;2023-02-26T14:37:18;2.53;;;1.67;;
3733;SDS011;1882;52.256;8.874;2023-02-26T14:39:57;2.83;;;1.50;;
3733;SDS011;1882;52.256;8.874;2023-02-26T14:42:43;1.30;;;1.20;;
3733;SDS011;1882;52.256;8.874;2023-02-26T14:48:16;2.00;;;1.27;;
3733;SDS011;1882;52.256;8.874;2023-02-26T15:06:49;1.30;;;1.20;;
3733;SDS011;1882;52.256;8.874;2023-02-26T15:12:20;1.47;;;1.30;;
3733;SDS011;1882;52.256;8.874;2023-02-26T15:20:30;3.83;;;1.20;;
3733;SDS011;1882;52.256;8.874;2023-02-26T15:25:33;3.83;;;1.30;;
3733;SDS011;1882;52.256;8.874;2023-02-26T15:28:42;2.70;;;1.30;;
3733;SDS011;1882;52.256;8.874;2023-02-26T15:31:18;1.40;;;1.10;;
3733;SDS011;1882;52.256;8.874;2023-02-26T15:33:47;1.47;;;1.30;;
3733;SDS011;1882;52.256;8.874;2023-02-26T15:36:18;1.47;;;1.37;;
3733;SDS011;1882;52.256;8.874;2023-02-26T15:38:48;1.47;;;1.37;;
3733;SDS011;1882;52.256;8.874;2023-02-26T15:41:26;2.93;;;1.33;;
3733;SDS011;1882;52.256;8.874;2023-02-26T15:43:55;1.70;;;1.27;;
3733;SDS011;1882;52.256;8.874;2023-02-26T15:46:27;4.43;;;1.90;;
3733;SDS011;1882;52.256;8.874;2023-02-26T15:48:58;3.67;;;1.70;;
3733;SDS011;1882;52.256;8.874;2023-02-26T15:51:27;1.60;;;1.50;;
3733;SDS011;1882;52.256;8.874;2023-02-26T15:53:54;2.47;;;1.33;;
3733;SDS011;1882;52.256;8.874;2023-02-26T15:56:30;1.60;;;1.50;;
3733;SDS011;1882;52.256;8.874;2023-02-26T15:59:00;1.30;;;1.20;;
3733;SDS011;1882;52.256;8.874;2023-02-26T16:01:35;3.23;;;1.53;;
3733;SDS011;1882;52.256;8.874;2023-02-26T16:04:15;1.10;;;1.10;;
3733;SDS011;1882;52.256;8.874;2023-02-26T16:06:48;4.17;;;1.60;;
3733;SDS011;1882;52.256;8.874;2023-02-26T16:12:11;1.60;;;1.50;;
3733;SDS011;1882;52.256;8.874;2023-02-26T16:14:55;2.10;;;1.40;;
3733;SDS011;1882;52.256;8.874;2023-02-26T16:17:26;1.67;;;1.53;;
3733;SDS011;1882;52.256;8.874;2023-02-26T16:20:04;2.40;;;1.50;;
3733;SDS011;1882;52.256;8.874;2023-02-26T16:22:37;3.93;;;1.63;;
3733;SDS011;1882;52.256;8.874;2023-02-26T16:27:53;2.80;;;1.80;;
3733;SDS011;1882;52.256;8.874;2023-02-26T16:30:25;4.77;;;1.87;;
3733;SDS011;1882;52.256;8.874;2023-02-26T16:33:05;1.70;;;1.60;;
3733;SDS011;1882;52.256;8.874;2023-02-26T16:36:10;1.60;;;1.50;;
3733;SDS011;1882;52.256;8.874;2023-02-26T16:38:47;3.17;;;1.70;;
3733;SDS011;1882;52.256;8.874;2023-02-26T16:41:19;2.90;;;1.60;;
3733;SDS011;1882;52.256;8.874;2023-02-26T16:46:33;1.93;;;1.60;;
3733;SDS011;1882;52.256;8.874;2023-02-26T16:49:05;2.97;;;2.10;;
3733;SDS011;1882;52.256;8.874;2023-02-26T16:51:54;4.60;;;2.57;;
3733;SDS011;1882;52.256;8.874;2023-02-26T16:54:22;2.50;;;2.03;;
3733;SDS011;1882;52.256;8.874;2023-02-26T16:56:58;3.63;;;2.20;;
3733;SDS011;1882;52.256;8.874;2023-02-26T16:59:29;4.40;;;2.03;;
3733;SDS011;1882;52.256;8.874;2023-02-26T17:02:02;2.30;;;2.07;;
3733;SDS011;1882;52.256;8.874;2023-02-26T17:04:49;3.80;;;2.47;;
3733;SDS011;1882;52.256;8.874;2023-02-26T17:09:58;4.77;;;2.20;;
3733;SDS011;1882;52.256;8.874;2023-02-26T17:12:43;2.20;;;2.00;;
3733;SDS011;1882;52.256;8.874;2023-02-26T17:15:43;4.53;;;1.93;;
3733;SDS011;1882;52.256;8.874;2023-02-26T17:18:12;2.30;;;2.10;;
3733;SDS011;1882;52.256;8.874;2023-02-26T17:20:39;2.30;;;2.00;;
3733;SDS011;1882;52.256;8.874;2023-02-26T17:23:10;2.37;;;2.00;;
3733;SDS011;1882;52.256;8.874;2023-02-26T17:25:40;3.83;;;2.37;;
3733;SDS011;1882;52.256;8.874;2023-02-26T17:28:09;2.70;;;2.10;;
3733;SDS011;1882;52.256;8.874;2023-02-26T17:30:40;3.90;;;2.10;;
3733;SDS011;1882;52.256;8.874;2023-02-26T17:33:10;2.53;;;2.33;;
3733;SDS011;1882;52.256;8.874;2023-02-26T17:35:39;4.00;;;3.33;;
3733;SDS011;1882;52.256;8.874;2023-02-26T17:38:08;4.40;;;3.13;;
3733;SDS011;1882;52.256;8.874;2023-02-26T17:40:41;7.73;;;4.07;;
3733;SDS011;1882;52.256;8.874;2023-02-26T17:43:09;6.60;;;4.10;;
3733;SDS011;1882;52.256;8.874;2023-02-26T17:45:36;5.37;;;3.23;;
3733;SDS011;1882;52.256;8.874;2023-02-26T17:48:13;5.03;;;2.90;;
3733;SDS011;1882;52.256;8.874;2023-02-26T17:50:45;4.70;;;2.97;;
3733;SDS011;1882;52.256;8.874;2023-02-26T17:53:15;4.77;;;3.90;;
3733;SDS011;1882;52.256;8.874;2023-02-26T17:55:43;5.13;;;2.60;;
3733;SDS011;1882;52.256;8.874;2023-02-26T17:58:14;3.23;;;2.27;;
3733;SDS011;1882;52.256;8.874;2023-02-26T18:03:39;4.10;;;3.13;;
3733;SDS011;1882;52.256;8.874;2023-02-26T18:09:02;5.03;;;2.27;;
3733;SDS011;1882;52.256;8.874;2023-02-26T18:11:31;6.57;;;3.20;;
3733;SDS011;1882;52.256;8.874;2023-02-26T18:13:58;5.17;;;2.90;;
3733;SDS011;1882;52.256;8.874;2023-02-26T18:16:37;3.90;;;3.10;;
3733;SDS011;1882;52.256;8.874;2023-02-26T18:19:05;4.17;;;2.90;;
3733;SDS011;1882;52.256;8.874;2023-02-26T18:21:41;5.53;;;3.60;;
3733;SDS011;1882;52.256;8.874;2023-02-26T18:24:08;9.23;;;3.27;;
3733;SDS011;1882;52.256;8.874;2023-02-26T18:26:35;4.90;;;3.20;;
3733;SDS011;1882;52.256;8.874;2023-02-26T18:29:02;5.27;;;3.30;;
3733;SDS011;1882;52.256;8.874;2023-02-26T18:31:36;4.53;;;3.17;;
3733;SDS011;1882;52.256;8.874;2023-02-26T18:34:04;5.43;;;3.03;;
3733;SDS011;1882;52.256;8.874;2023-02-26T18:36:31;5.10;;;2.93;;
3733;SDS011;1882;52.256;8.874;2023-02-26T18:39:06;3.07;;;2.83;;
3733;SDS011;1882;52.256;8.874;2023-02-26T18:41:35;5.80;;;3.03;;
3733;SDS011;1882;52.256;8.874;2023-02-26T18:44:03;3.20;;;2.70;;
3733;SDS011;1882;52.256;8.874;2023-02-26T18:46:39;8.17;;;4.00;;
3733;SDS011;1882;52.256;8.874;2023-02-26T18:49:14;7.23;;;3.40;;
3733;SDS011;1882;52.256;8.874;2023-02-26T18:51:46;9.30;;;4.90;;
3733;SDS011;1882;52.256;8.874;2023-02-26T18:54:13;15.00;;;7.97;;
3733;SDS011;1882;52.256;8.874;2023-02-26T18:56:39;17.40;;;8.00;;
3733;SDS011;1882;52.256;8.874;2023-02-26T18:59:09;7.20;;;4.30;;
3733;SDS011;1882;52.256;8.874;2023-02-26T19:01:38;7.70;;;4.67;;
3733;SDS011;1882;52.256;8.874;2023-02-26T19:04:05;6.97;;;4.03;;
3733;SDS011;1882;52.256;8.874;2023-02-26T19:06:32;5.97;;;3.10;;
3733;SDS011;1882;52.256;8.874;2023-02-26T19:08:59;4.80;;;3.20;;
3733;SDS011;1882;52.256;8.874;2023-02-26T19:11:43;7.73;;;3.67;;
3733;SDS011;1882;52.256;8.874;2023-02-26T19:14:13;4.73;;;2.93;;
3733;SDS011;1882;52.256;8.874;2023-02-26T19:16:40;5.37;;;4.00;;
3733;SDS011;1882;52.256;8.874;2023-02-26T19:19:09;5.43;;;3.60;;
3733;SDS011;1882;52.256;8.874;2023-02-26T19:21:38;4.13;;;3.10;;
3733;SDS011;1882;52.256;8.874;2023-02-26T19:24:08;11.13;;;2.93;;
3733;SDS011;1882;52.256;8.874;2023-02-26T19:26:38;9.10;;;3.70;;
3733;SDS011;1882;52.256;8.874;2023-02-26T19:29:06;7.10;;;3.10;;
3733;SDS011;1882;52.256;8.874;2023-02-26T19:31:34;5.33;;;3.00;;
3733;SDS011;1882;52.256;8.874;2023-02-26T19:34:06;3.90;;;3.10;;
3733;SDS011;1882;52.256;8.874;2023-02-26T19:36:33;7.10;;;4.03;;
3733;SDS011;1882;52.256;8.874;2023-02-26T19:39:00;4.23;;;2.63;;
3733;SDS011;1882;52.256;8.874;2023-02-26T19:41:29;6.63;;;3.37;;
3733;SDS011;1882;52.256;8.874;2023-02-26T19:44:00;5.13;;;3.27;;
3733;SDS011;1882;52.256;8.874;2023-02-26T19:46:26;5.33;;;3.50;;
3733;SDS011;1882;52.256;8.874;2023-02-26T19:48:53;5.73;;;2.90;;
3733;SDS011;1882;52.256;8.874;2023-02-26T19:51:20;7.07;;;3.57;;
3733;SDS011;1882;52.256;8.874;2023-02-26T19:53:47;5.20;;;3.00;;
3733;SDS011;1882;52.256;8.874;2023-02-26T19:56:19;4.67;;;3.00;;